Airfield :
LOGIN :

Register | Disclaimer

   EN    FR    IT 

 










Legend :    VFR   Marginal VFR   IFR   Intensive IFR   Very Intensive IFR
Visi :
Ceiling :
>= 8 km
>= 3000ft
5 to 8 km
1000 to 3000 ft
1500m to 5 km
500 to 1000 ft
800 to 1500m
200 to 500 ft
< 800m
< 200 ft
Symbols :   Thunderstorms  Fog  Heavy snow  Heavy precipitations  Wind > 20 kt
SIGMETs :     Misc.  Thunderstorms  Icing  Turbulence  Mountain Waves  Volcanic Ashes






- Airport Elevation : 102 ft
- IATA code : EXT


EGTE - Exeter

CURRENT METAR :
  • 032350Z 08003KT 9999 FEW040 10/08 Q1023

EXPIRED METARs :
  • 031520Z 31008KT 260V330 9999 SCT040 19/09 Q1022
  • 032320Z VRB03KT 9999 FEW040 11/09 Q1023
  • 032220Z VRB03KT 9999 FEW040 12/09 Q1023
  • 032150Z 32007KT 9999 FEW040 13/10 Q1023
  • 032120Z 30005KT 260V340 9999 FEW040 13/10 Q1023

TAF TAF EGTE
Valid from the 04 at 00:00 until the 04 at 03:00 UTC


032257Z 0400/0403 30005KT 9999 FEW040
PROB30 0400/0403 7000



MET'MAP, your aeronautical weather chart ! - Copyright ORBIFLY December 2007 - Disclaimer

ORBIFLY MET'MAP TEAM :

Programming & Development : Alexandra Zaïnal
Original concept : Baudouin d'Aumeries
Technical & hardware support : Manuel Goepfert
Assistance : Marc-Olivier Méhu




SOURCES & CREDITS :

   NOAA